sensor_id;sensor_type;location;lat;lon;timestamp;pressure;altitude;pressure_sealevel;temperature;humidity
3206;BME280;1615;53.602;11.418;2023-01-28T00:01:36;102500.66;;;5.89;100.00
3206;BME280;1615;53.602;11.418;2023-01-28T00:04:03;102479.78;;;5.83;100.00
3206;BME280;1615;53.602;11.418;2023-01-28T00:06:28;102410.06;;;5.51;100.00
3206;BME280;1615;53.602;11.418;2023-01-28T00:08:53;102496.16;;;6.01;100.00
3206;BME280;1615;53.602;11.418;2023-01-28T00:11:22;102500.13;;;6.05;100.00
3206;BME280;1615;53.602;11.418;2023-01-28T00:13:51;102492.38;;;6.02;100.00
3206;BME280;1615;53.602;11.418;2023-01-28T00:16:17;102485.56;;;5.93;100.00
3206;BME280;1615;53.602;11.418;2023-01-28T00:18:42;102494.78;;;5.92;100.00
3206;BME280;1615;53.602;11.418;2023-01-28T00:21:12;102488.88;;;5.95;100.00
3206;BME280;1615;53.602;11.418;2023-01-28T00:23:39;102488.50;;;5.91;100.00
3206;BME280;1615;53.602;11.418;2023-01-28T00:26:09;102486.28;;;5.82;100.00
3206;BME280;1615;53.602;11.418;2023-01-28T00:28:35;102498.59;;;5.78;100.00
3206;BME280;1615;53.602;11.418;2023-01-28T00:31:14;102506.03;;;5.64;100.00
3206;BME280;1615;53.602;11.418;2023-01-28T00:33:42;102495.56;;;5.61;100.00
3206;BME280;1615;53.602;11.418;2023-01-28T00:36:08;102439.16;;;5.13;100.00
3206;BME280;1615;53.602;11.418;2023-01-28T00:38:33;102497.72;;;5.53;100.00
3206;BME280;1615;53.602;11.418;2023-01-28T00:41:13;102486.97;;;5.64;100.00
3206;BME280;1615;53.602;11.418;2023-01-28T00:43:40;102496.13;;;5.70;100.00
3206;BME280;1615;53.602;11.418;2023-01-28T00:46:07;102492.78;;;5.74;100.00
3206;BME280;1615;53.602;11.418;2023-01-28T00:48:36;102497.16;;;5.82;100.00
3206;BME280;1615;53.602;11.418;2023-01-28T00:51:03;102505.03;;;5.90;100.00
3206;BME280;1615;53.602;11.418;2023-01-28T00:53:29;102509.03;;;5.87;100.00
3206;BME280;1615;53.602;11.418;2023-01-28T00:55:54;102361.09;;;4.89;100.00
3206;BME280;1615;53.602;11.418;2023-01-28T00:58:20;102505.53;;;5.74;100.00
3206;BME280;1615;53.602;11.418;2023-01-28T01:00:46;102506.16;;;5.76;100.00
3206;BME280;1615;53.602;11.418;2023-01-28T01:03:12;102485.44;;;5.75;100.00
3206;BME280;1615;53.602;11.418;2023-01-28T01:05:37;102328.81;;;4.68;100.00
3206;BME280;1615;53.602;11.418;2023-01-28T01:08:02;102492.56;;;5.76;100.00
3206;BME280;1615;53.602;11.418;2023-01-28T01:10:28;102491.75;;;5.69;100.00
3206;BME280;1615;53.602;11.418;2023-01-28T01:12:53;102493.50;;;5.57;100.00
3206;BME280;1615;53.602;11.418;2023-01-28T01:15:19;102378.06;;;4.78;100.00
3206;BME280;1615;53.602;11.418;2023-01-28T01:17:47;102496.91;;;5.52;100.00
3206;BME280;1615;53.602;11.418;2023-01-28T01:20:16;102497.09;;;5.51;100.00
3206;BME280;1615;53.602;11.418;2023-01-28T01:22:41;102369.13;;;4.71;100.00
3206;BME280;1615;53.602;11.418;2023-01-28T01:25:07;102498.38;;;5.48;100.00
3206;BME280;1615;53.602;11.418;2023-01-28T01:27:32;102418.34;;;4.87;100.00
3206;BME280;1615;53.602;11.418;2023-01-28T01:30:00;102490.91;;;5.31;100.00
3206;BME280;1615;53.602;11.418;2023-01-28T01:32:31;102490.06;;;5.37;100.00
3206;BME280;1615;53.602;11.418;2023-01-28T01:35:03;102488.78;;;5.39;100.00
3206;BME280;1615;53.602;11.418;2023-01-28T01:37:33;102452.88;;;4.80;100.00
3206;BME280;1615;53.602;11.418;2023-01-28T01:39:59;102355.72;;;4.76;100.00
3206;BME280;1615;53.602;11.418;2023-01-28T01:42:26;102496.59;;;5.67;100.00
3206;BME280;1615;53.602;11.418;2023-01-28T01:47:45;102500.78;;;5.63;100.00
3206;BME280;1615;53.602;11.418;2023-01-28T01:50:21;102492.63;;;5.63;100.00
3206;BME280;1615;53.602;11.418;2023-01-28T01:52:49;102486.13;;;5.64;100.00
3206;BME280;1615;53.602;11.418;2023-01-28T01:55:22;102486.13;;;5.64;100.00
3206;BME280;1615;53.602;11.418;2023-01-28T01:57:50;102492.63;;;5.63;100.00
3206;BME280;1615;53.602;11.418;2023-01-28T02:00:17;102487.78;;;5.65;100.00
3206;BME280;1615;53.602;11.418;2023-01-28T02:02:45;102509.34;;;5.66;100.00
3206;BME280;1615;53.602;11.418;2023-01-28T02:05:14;102498.69;;;5.65;100.00
3206;BME280;1615;53.602;11.418;2023-01-28T02:07:40;102493.88;;;5.67;100.00
3206;BME280;1615;53.602;11.418;2023-01-28T02:10:07;102497.00;;;5.64;100.00
3206;BME280;1615;53.602;11.418;2023-01-28T02:12:35;102493.69;;;5.62;100.00
3206;BME280;1615;53.602;11.418;2023-01-28T02:15:12;102483.47;;;5.57;100.00
3206;BME280;1615;53.602;11.418;2023-01-28T02:17:38;102342.94;;;4.83;100.00
3206;BME280;1615;53.602;11.418;2023-01-28T02:20:07;102445.25;;;5.46;100.00
3206;BME280;1615;53.602;11.418;2023-01-28T02:28:20;102491.13;;;5.73;100.00
3206;BME280;1615;53.602;11.418;2023-01-28T02:31:03;102489.81;;;5.82;100.00
3206;BME280;1615;53.602;11.418;2023-01-28T02:33:58;102486.06;;;5.77;100.00
3206;BME280;1615;53.602;11.418;2023-01-28T02:39:18;102461.03;;;5.62;100.00
3206;BME280;1615;53.602;11.418;2023-01-28T02:42:03;102478.16;;;5.69;100.00
3206;BME280;1615;53.602;11.418;2023-01-28T02:44:30;102466.88;;;5.65;100.00
3206;BME280;1615;53.602;11.418;2023-01-28T02:46:56;102472.09;;;5.67;100.00
3206;BME280;1615;53.602;11.418;2023-01-28T02:49:56;102475.22;;;5.70;100.00
3206;BME280;1615;53.602;11.418;2023-01-28T02:55:36;102473.06;;;5.85;100.00
3206;BME280;1615;53.602;11.418;2023-01-28T03:03:33;102473.78;;;5.61;100.00
3206;BME280;1615;53.602;11.418;2023-01-28T03:06:09;102453.59;;;5.51;100.00
3206;BME280;1615;53.602;11.418;2023-01-28T03:08:43;102459.41;;;5.54;100.00
3206;BME280;1615;53.602;11.418;2023-01-28T03:11:31;102356.09;;;4.86;100.00
3206;BME280;1615;53.602;11.418;2023-01-28T03:14:17;102467.78;;;5.53;100.00
3206;BME280;1615;53.602;11.418;2023-01-28T03:17:04;102461.53;;;5.52;100.00
3206;BME280;1615;53.602;11.418;2023-01-28T03:19:50;102471.53;;;5.58;100.00
3206;BME280;1615;53.602;11.418;2023-01-28T03:22:36;102481.50;;;5.71;100.00
3206;BME280;1615;53.602;11.418;2023-01-28T03:25:24;102477.75;;;5.65;100.00
3206;BME280;1615;53.602;11.418;2023-01-28T03:28:15;102395.28;;;5.09;100.00
3206;BME280;1615;53.602;11.418;2023-01-28T03:31:11;102462.28;;;5.66;100.00
3206;BME280;1615;53.602;11.418;2023-01-28T03:33:57;102467.00;;;5.77;100.00
3206;BME280;1615;53.602;11.418;2023-01-28T03:36:43;102491.06;;;5.80;100.00
3206;BME280;1615;53.602;11.418;2023-01-28T03:39:20;102468.88;;;5.83;100.00
3206;BME280;1615;53.602;11.418;2023-01-28T03:42:01;102466.84;;;5.72;100.00
3206;BME280;1615;53.602;11.418;2023-01-28T03:44:27;102477.38;;;5.62;100.00
3206;BME280;1615;53.602;11.418;2023-01-28T03:47:11;102465.28;;;5.51;100.00
3206;BME280;1615;53.602;11.418;2023-01-28T03:49:44;102468.00;;;5.51;100.00
3206;BME280;1615;53.602;11.418;2023-01-28T03:52:11;102469.19;;;5.62;100.00
3206;BME280;1615;53.602;11.418;2023-01-28T03:54:37;102463.94;;;5.67;100.00
3206;BME280;1615;53.602;11.418;2023-01-28T03:57:03;102360.41;;;5.00;100.00
3206;BME280;1615;53.602;11.418;2023-01-28T03:59:30;102470.91;;;5.56;100.00
3206;BME280;1615;53.602;11.418;2023-01-28T04:01:56;102472.63;;;5.51;100.00
3206;BME280;1615;53.602;11.418;2023-01-28T04:04:21;102446.53;;;5.37;100.00
3206;BME280;1615;53.602;11.418;2023-01-28T04:06:50;102461.78;;;5.44;100.00
3206;BME280;1615;53.602;11.418;2023-01-28T04:09:16;102462.22;;;5.41;100.00
3206;BME280;1615;53.602;11.418;2023-01-28T04:11:41;102459.31;;;5.36;100.00
3206;BME280;1615;53.602;11.418;2023-01-28T04:14:07;102485.06;;;5.34;100.00
3206;BME280;1615;53.602;11.418;2023-01-28T04:16:32;102379.53;;;4.74;100.00
3206;BME280;1615;53.602;11.418;2023-01-28T04:18:57;102491.13;;;5.36;100.00
3206;BME280;1615;53.602;11.418;2023-01-28T04:21:24;102482.59;;;5.26;100.00
3206;BME280;1615;53.602;11.418;2023-01-28T04:23:49;102477.59;;;5.23;100.00
3206;BME280;1615;53.602;11.418;2023-01-28T04:26:15;102483.44;;;5.20;100.00
3206;BME280;1615;53.602;11.418;2023-01-28T04:28:40;102485.56;;;5.18;100.00
3206;BME280;1615;53.602;11.418;2023-01-28T04:31:06;102483.84;;;5.23;100.00
3206;BME280;1615;53.602;11.418;2023-01-28T04:33:31;102493.66;;;5.31;100.00
3206;BME280;1615;53.602;11.418;2023-01-28T04:35:56;102486.28;;;5.38;100.00
3206;BME280;1615;53.602;11.418;2023-01-28T04:38:22;102483.50;;;5.51;100.00
3206;BME280;1615;53.602;11.418;2023-01-28T04:40:51;102489.34;;;5.54;100.00
3206;BME280;1615;53.602;11.418;2023-01-28T04:43:16;102486.03;;;5.46;100.00
3206;BME280;1615;53.602;11.418;2023-01-28T04:45:42;102482.06;;;5.42;100.00
3206;BME280;1615;53.602;11.418;2023-01-28T04:48:08;102485.66;;;5.36;100.00
3206;BME280;1615;53.602;11.418;2023-01-28T04:50:33;102480.44;;;5.34;100.00
3206;BME280;1615;53.602;11.418;2023-01-28T04:52:58;102509.84;;;5.13;100.00
3206;BME280;1615;53.602;11.418;2023-01-28T04:55:24;101890.03;;;1.73;100.00
3206;BME280;1615;53.602;11.418;2023-01-28T04:57:49;102466.66;;;5.29;100.00
3206;BME280;1615;53.602;11.418;2023-01-28T05:00:15;102339.75;;;4.55;100.00
3206;BME280;1615;53.602;11.418;2023-01-28T05:02:40;102476.91;;;5.34;100.00
3206;BME280;1615;53.602;11.418;2023-01-28T05:05:06;102314.13;;;4.31;100.00
3206;BME280;1615;53.602;11.418;2023-01-28T05:07:33;102474.25;;;5.21;100.00
3206;BME280;1615;53.602;11.418;2023-01-28T05:09:59;102465.97;;;5.03;100.00
3206;BME280;1615;53.602;11.418;2023-01-28T05:12:24;102473.06;;;5.04;100.00
3206;BME280;1615;53.602;11.418;2023-01-28T05:14:49;102409.47;;;4.67;100.00
3206;BME280;1615;53.602;11.418;2023-01-28T05:17:15;102473.09;;;4.97;100.00
3206;BME280;1615;53.602;11.418;2023-01-28T05:19:40;102477.31;;;4.93;100.00
3206;BME280;1615;53.602;11.418;2023-01-28T05:22:05;102472.25;;;4.97;100.00
3206;BME280;1615;53.602;11.418;2023-01-28T05:24:31;102469.28;;;5.05;100.00
3206;BME280;1615;53.602;11.418;2023-01-28T05:26:56;102474.31;;;5.08;100.00
3206;BME280;1615;53.602;11.418;2023-01-28T05:29:21;102478.50;;;5.04;100.00
3206;BME280;1615;53.602;11.418;2023-01-28T05:31:47;102474.31;;;5.08;100.00
3206;BME280;1615;53.602;11.418;2023-01-28T05:34:12;102470.94;;;5.06;100.00
3206;BME280;1615;53.602;11.418;2023-01-28T05:36:37;102473.88;;;5.11;100.00
3206;BME280;1615;53.602;11.418;2023-01-28T05:39:05;102467.16;;;5.13;100.00
3206;BME280;1615;53.602;11.418;2023-01-28T05:41:32;102452.41;;;4.96;100.00
3206;BME280;1615;53.602;11.418;2023-01-28T05:43:57;102475.97;;;5.09;100.00
3206;BME280;1615;53.602;11.418;2023-01-28T05:46:22;102479.28;;;5.11;100.00
3206;BME280;1615;53.602;11.418;2023-01-28T05:48:49;102472.66;;;5.00;100.00
3206;BME280;1615;53.602;11.418;2023-01-28T05:51:15;102474.53;;;5.00;100.00
3206;BME280;1615;53.602;11.418;2023-01-28T05:53:40;102477.47;;;4.98;100.00
3206;BME280;1615;53.602;11.418;2023-01-28T05:56:06;102338.84;;;4.17;100.00
3206;BME280;1615;53.602;11.418;2023-01-28T05:58:31;102466.44;;;4.93;100.00
3206;BME280;1615;53.602;11.418;2023-01-28T06:00:57;102471.25;;;4.85;100.00
3206;BME280;1615;53.602;11.418;2023-01-28T06:03:22;102462.72;;;4.75;100.00
3206;BME280;1615;53.602;11.418;2023-01-28T06:05:47;102471.09;;;4.67;100.00
3206;BME280;1615;53.602;11.418;2023-01-28T06:08:13;102470.50;;;4.65;100.00
3206;BME280;1615;53.602;11.418;2023-01-28T06:10:38;102449.41;;;4.54;100.00
3206;BME280;1615;53.602;11.418;2023-01-28T06:13:03;102456.50;;;4.61;100.00
3206;BME280;1615;53.602;11.418;2023-01-28T06:15:29;102453.34;;;4.58;100.00
3206;BME280;1615;53.602;11.418;2023-01-28T06:17:54;102102.41;;;2.41;100.00
3206;BME280;1615;53.602;11.418;2023-01-28T06:20:19;102459.88;;;4.44;100.00
3206;BME280;1615;53.602;11.418;2023-01-28T06:22:45;102373.72;;;3.81;100.00
3206;BME280;1615;53.602;11.418;2023-01-28T06:25:10;102457.41;;;4.23;100.00
3206;BME280;1615;53.602;11.418;2023-01-28T06:27:35;102457.00;;;4.13;100.00
3206;BME280;1615;53.602;11.418;2023-01-28T06:30:01;102457.19;;;4.05;100.00
3206;BME280;1615;53.602;11.418;2023-01-28T06:32:27;102442.78;;;3.98;100.00
3206;BME280;1615;53.602;11.418;2023-01-28T06:34:52;102445.28;;;3.93;100.00
3206;BME280;1615;53.602;11.418;2023-01-28T06:37:18;102441.16;;;3.84;100.00
3206;BME280;1615;53.602;11.418;2023-01-28T06:39:43;102444.03;;;3.76;100.00
3206;BME280;1615;53.602;11.418;2023-01-28T06:42:08;102452.41;;;3.68;100.00
3206;BME280;1615;53.602;11.418;2023-01-28T06:44:34;102453.19;;;3.62;100.00
3206;BME280;1615;53.602;11.418;2023-01-28T06:46:59;102446.94;;;3.55;100.00
3206;BME280;1615;53.602;11.418;2023-01-28T06:49:24;102456.53;;;3.44;100.00
3206;BME280;1615;53.602;11.418;2023-01-28T06:51:50;102450.66;;;3.41;100.00
3206;BME280;1615;53.602;11.418;2023-01-28T06:54:15;102457.13;;;3.40;100.00
3206;BME280;1615;53.602;11.418;2023-01-28T06:56:41;102464.38;;;3.20;100.00
3206;BME280;1615;53.602;11.418;2023-01-28T06:59:06;102466.44;;;3.18;100.00
3206;BME280;1615;53.602;11.418;2023-01-28T07:01:32;102472.91;;;3.17;100.00
3206;BME280;1615;53.602;11.418;2023-01-28T07:03:57;102470.19;;;3.17;100.00
3206;BME280;1615;53.602;11.418;2023-01-28T07:06:23;102478.09;;;3.12;100.00
3206;BME280;1615;53.602;11.418;2023-01-28T07:08:48;102471.63;;;3.13;100.00
3206;BME280;1615;53.602;11.418;2023-01-28T07:11:14;102477.25;;;3.11;100.00
3206;BME280;1615;53.602;11.418;2023-01-28T07:13:39;102496.22;;;3.11;100.00
3206;BME280;1615;53.602;11.418;2023-01-28T07:16:06;102487.06;;;3.12;100.00
3206;BME280;1615;53.602;11.418;2023-01-28T07:18:31;102486.47;;;3.17;100.00
3206;BME280;1615;53.602;11.418;2023-01-28T07:20:57;102467.88;;;3.07;100.00
3206;BME280;1615;53.602;11.418;2023-01-28T07:23:22;102486.47;;;3.17;100.00
3206;BME280;1615;53.602;11.418;2023-01-28T07:25:47;102506.84;;;3.13;100.00
3206;BME280;1615;53.602;11.418;2023-01-28T07:28:13;102498.91;;;3.11;100.00
3206;BME280;1615;53.602;11.418;2023-01-28T07:30:38;102487.19;;;2.98;100.00
3206;BME280;1615;53.602;11.418;2023-01-28T07:33:04;102503.53;;;3.11;100.00
3206;BME280;1615;53.602;11.418;2023-01-28T07:35:29;102514.34;;;3.11;100.00
3206;BME280;1615;53.602;11.418;2023-01-28T07:37:58;102515.63;;;3.15;100.00
3206;BME280;1615;53.602;11.418;2023-01-28T07:40:24;102516.88;;;3.19;100.00
3206;BME280;1615;53.602;11.418;2023-01-28T07:42:49;102519.81;;;3.24;100.00
3206;BME280;1615;53.602;11.418;2023-01-28T07:45:15;102515.69;;;3.28;100.00
3206;BME280;1615;53.602;11.418;2023-01-28T07:47:41;102516.94;;;3.32;100.00
3206;BME280;1615;53.602;11.418;2023-01-28T07:50:07;102509.03;;;3.37;100.00
3206;BME280;1615;53.602;11.418;2023-01-28T07:52:33;102502.16;;;3.41;100.00
3206;BME280;1615;53.602;11.418;2023-01-28T07:55:09;102502.81;;;3.43;100.00
3206;BME280;1615;53.602;11.418;2023-01-28T07:57:34;102506.56;;;3.42;100.00
3206;BME280;1615;53.602;11.418;2023-01-28T07:59:59;102518.66;;;3.46;100.00
3206;BME280;1615;53.602;11.418;2023-01-28T08:02:25;102512.44;;;3.52;100.00
3206;BME280;1615;53.602;11.418;2023-01-28T08:04:50;102514.53;;;3.56;100.00
3206;BME280;1615;53.602;11.418;2023-01-28T08:07:15;102521.38;;;3.52;100.00
3206;BME280;1615;53.602;11.418;2023-01-28T08:09:42;102534.13;;;3.52;100.00
3206;BME280;1615;53.602;11.418;2023-01-28T08:12:07;102533.31;;;3.71;100.00
3206;BME280;1615;53.602;11.418;2023-01-28T08:14:33;102536.69;;;3.86;100.00
3206;BME280;1615;53.602;11.418;2023-01-28T08:16:58;102533.38;;;3.97;100.00
3206;BME280;1615;53.602;11.418;2023-01-28T08:19:23;102535.06;;;4.04;100.00
3206;BME280;1615;53.602;11.418;2023-01-28T08:21:49;102531.28;;;4.18;100.00
3206;BME280;1615;53.602;11.418;2023-01-28T08:24:15;102541.75;;;4.28;100.00
3206;BME280;1615;53.602;11.418;2023-01-28T08:26:41;102549.47;;;4.31;100.00
3206;BME280;1615;53.602;11.418;2023-01-28T08:29:07;102541.97;;;4.33;100.00
3206;BME280;1615;53.602;11.418;2023-01-28T08:31:32;102424.00;;;3.57;100.00
3206;BME280;1615;53.602;11.418;2023-01-28T08:33:58;102543.84;;;4.39;100.00
3206;BME280;1615;53.602;11.418;2023-01-28T08:36:23;102521.72;;;4.35;100.00
3206;BME280;1615;53.602;11.418;2023-01-28T08:38:52;102547.59;;;4.51;100.00
3206;BME280;1615;53.602;11.418;2023-01-28T08:41:21;102547.16;;;4.41;100.00
3206;BME280;1615;53.602;11.418;2023-01-28T08:43:47;102566.38;;;4.46;100.00
3206;BME280;1615;53.602;11.418;2023-01-28T08:46:13;102563.03;;;4.50;100.00
3206;BME280;1615;53.602;11.418;2023-01-28T08:48:39;102562.63;;;4.60;100.00
3206;BME280;1615;53.602;11.418;2023-01-28T08:51:04;102570.13;;;4.58;100.00
3206;BME280;1615;53.602;11.418;2023-01-28T08:53:30;102565.75;;;4.63;100.00
3206;BME280;1615;53.602;11.418;2023-01-28T08:55:55;102442.38;;;3.88;100.00
3206;BME280;1615;53.602;11.418;2023-01-28T08:58:21;102578.50;;;4.63;100.00
3206;BME280;1615;53.602;11.418;2023-01-28T09:00:47;102575.16;;;4.67;100.00
3206;BME280;1615;53.602;11.418;2023-01-28T09:03:12;102573.06;;;4.69;100.00
3206;BME280;1615;53.602;11.418;2023-01-28T09:05:38;102525.44;;;4.47;100.00
3206;BME280;1615;53.602;11.418;2023-01-28T09:08:12;102572.00;;;4.77;100.00
3206;BME280;1615;53.602;11.418;2023-01-28T09:10:38;102584.75;;;4.83;100.00
3206;BME280;1615;53.602;11.418;2023-01-28T09:13:11;102575.94;;;4.87;100.00
3206;BME280;1615;53.602;11.418;2023-01-28T09:15:38;102574.47;;;4.98;100.00
3206;BME280;1615;53.602;11.418;2023-01-28T09:18:04;102573.63;;;5.04;100.00
3206;BME280;1615;53.602;11.418;2023-01-28T09:20:30;102444.44;;;4.31;100.00
3206;BME280;1615;53.602;11.418;2023-01-28T09:22:57;102574.22;;;5.12;100.00
3206;BME280;1615;53.602;11.418;2023-01-28T09:25:23;102569.41;;;5.14;100.00
3206;BME280;1615;53.602;11.418;2023-01-28T09:27:48;102574.59;;;5.29;100.00
3206;BME280;1615;53.602;11.418;2023-01-28T09:30:14;102576.69;;;5.33;100.00
3206;BME280;1615;53.602;11.418;2023-01-28T09:32:39;102582.50;;;5.37;100.00
3206;BME280;1615;53.602;11.418;2023-01-28T09:35:05;102594.25;;;5.37;100.00
3206;BME280;1615;53.602;11.418;2023-01-28T09:37:30;102588.78;;;5.44;100.00
3206;BME280;1615;53.602;11.418;2023-01-28T09:39:56;102596.50;;;5.47;100.00
3206;BME280;1615;53.602;11.418;2023-01-28T09:45:35;102591.03;;;5.60;100.00
3206;BME280;1615;53.602;11.418;2023-01-28T09:48:04;102600.44;;;5.57;100.00
3206;BME280;1615;53.602;11.418;2023-01-28T09:50:35;102606.28;;;5.61;100.00
3206;BME280;1615;53.602;11.418;2023-01-28T09:53:11;102604.16;;;5.63;100.00
3206;BME280;1615;53.602;11.418;2023-01-28T09:55:46;102606.22;;;5.67;100.00
3206;BME280;1615;53.602;11.418;2023-01-28T09:58:14;102602.91;;;5.65;100.00
3206;BME280;1615;53.602;11.418;2023-01-28T10:08:59;102605.34;;;5.86;100.00
3206;BME280;1615;53.602;11.418;2023-01-28T10:14:27;102602.16;;;5.96;100.00
3206;BME280;1615;53.602;11.418;2023-01-28T10:19:30;102598.59;;;5.95;100.00
3206;BME280;1615;53.602;11.418;2023-01-28T10:22:08;102601.09;;;5.97;100.00
3206;BME280;1615;53.602;11.418;2023-01-28T10:24:40;102548.91;;;5.62;100.00
3206;BME280;1615;53.602;11.418;2023-01-28T10:27:13;102596.06;;;6.00;100.00
3206;BME280;1615;53.602;11.418;2023-01-28T10:29:39;102594.56;;;6.04;100.00
3206;BME280;1615;53.602;11.418;2023-01-28T10:34:45;102572.59;;;6.30;100.00
3206;BME280;1615;53.602;11.418;2023-01-28T10:37:14;102561.69;;;6.30;100.00
3206;BME280;1615;53.602;11.418;2023-01-28T10:39:40;102561.28;;;6.33;100.00
3206;BME280;1615;53.602;11.418;2023-01-28T10:42:31;102565.63;;;6.41;100.00
3206;BME280;1615;53.602;11.418;2023-01-28T10:47:46;102543.31;;;6.50;100.00
3206;BME280;1615;53.602;11.418;2023-01-28T10:50:25;102539.25;;;6.59;100.00
3206;BME280;1615;53.602;11.418;2023-01-28T10:53:04;102539.84;;;6.61;100.00
3206;BME280;1615;53.602;11.418;2023-01-28T10:55:34;102532.09;;;6.58;100.00
3206;BME280;1615;53.602;11.418;2023-01-28T10:58:03;102480.50;;;6.21;100.00
3206;BME280;1615;53.602;11.418;2023-01-28T11:00:35;102528.09;;;6.61;100.00
3206;BME280;1615;53.602;11.418;2023-01-28T11:03:01;102528.50;;;6.64;100.00
3206;BME280;1615;53.602;11.418;2023-01-28T11:05:28;102530.81;;;6.61;100.00
3206;BME280;1615;53.602;11.418;2023-01-28T11:08:14;102519.81;;;6.56;100.00
3206;BME280;1615;53.602;11.418;2023-01-28T11:10:48;102525.94;;;6.45;100.00
3206;BME280;1615;53.602;11.418;2023-01-28T11:13:25;102533.13;;;6.64;100.00
3206;BME280;1615;53.602;11.418;2023-01-28T11:15:53;102530.69;;;6.56;100.00
3206;BME280;1615;53.602;11.418;2023-01-28T11:18:25;102539.00;;;6.61;100.00
3206;BME280;1615;53.602;11.418;2023-01-28T11:20:57;102412.66;;;5.95;100.00
3206;BME280;1615;53.602;11.418;2023-01-28T11:23:49;102509.97;;;6.73;100.00
3206;BME280;1615;53.602;11.418;2023-01-28T11:26:20;102498.00;;;6.74;100.00
3206;BME280;1615;53.602;11.418;2023-01-28T11:28:46;102491.66;;;6.62;100.00
3206;BME280;1615;53.602;11.418;2023-01-28T11:31:14;102470.44;;;6.46;100.00
3206;BME280;1615;53.602;11.418;2023-01-28T11:36:24;102438.31;;;6.30;100.00
3206;BME280;1615;53.602;11.418;2023-01-28T11:38:53;102459.06;;;6.31;100.00
3206;BME280;1615;53.602;11.418;2023-01-28T11:41:30;102457.72;;;6.15;100.00
3206;BME280;1615;53.602;11.418;2023-01-28T11:43:58;102408.38;;;5.81;100.00
3206;BME280;1615;53.602;11.418;2023-01-28T11:52:05;102439.84;;;5.70;100.00
3206;BME280;1615;53.602;11.418;2023-01-28T11:54:52;102433.34;;;5.71;100.00
3206;BME280;1615;53.602;11.418;2023-01-28T12:00:23;102425.78;;;5.80;100.00
3206;BME280;1615;53.602;11.418;2023-01-28T12:08:33;102412.59;;;5.46;100.00
3206;BME280;1615;53.602;11.418;2023-01-28T12:16:59;102403.56;;;5.21;100.00
3206;BME280;1615;53.602;11.418;2023-01-28T12:19:45;102402.09;;;5.18;100.00
3206;BME280;1615;53.602;11.418;2023-01-28T12:27:56;102401.22;;;5.24;100.00
3206;BME280;1615;53.602;11.418;2023-01-28T12:33:19;102406.38;;;5.39;100.00
3206;BME280;1615;53.602;11.418;2023-01-28T12:41:19;102392.00;;;5.56;100.00
3206;BME280;1615;53.602;11.418;2023-01-28T12:48:40;102404.53;;;5.33;100.00
3206;BME280;1615;53.602;11.418;2023-01-28T12:54:03;102383.22;;;5.30;100.00
3206;BME280;1615;53.602;11.418;2023-01-28T12:56:36;102311.41;;;4.75;100.00
3206;BME280;1615;53.602;11.418;2023-01-28T13:05:01;102378.38;;;5.32;100.00
3206;BME280;1615;53.602;11.418;2023-01-28T13:07:37;102376.31;;;5.34;100.00
3206;BME280;1615;53.602;11.418;2023-01-28T13:10:23;102211.31;;;4.48;100.00
3206;BME280;1615;53.602;11.418;2023-01-28T13:12:51;102260.66;;;4.76;100.00
3206;BME280;1615;53.602;11.418;2023-01-28T13:15:18;102366.50;;;5.57;100.00
3206;BME280;1615;53.602;11.418;2023-01-28T13:20:33;102282.38;;;5.07;100.00
3206;BME280;1615;53.602;11.418;2023-01-28T13:23:01;102358.44;;;5.69;100.00
3206;BME280;1615;53.602;11.418;2023-01-28T13:25:27;102348.72;;;5.79;100.00
3206;BME280;1615;53.602;11.418;2023-01-28T13:27:57;102383.63;;;5.89;100.00
3206;BME280;1615;53.602;11.418;2023-01-28T13:30:31;102364.13;;;5.92;100.00
3206;BME280;1615;53.602;11.418;2023-01-28T13:33:03;102354.59;;;5.83;100.00
3206;BME280;1615;53.602;11.418;2023-01-28T13:35:37;102356.69;;;5.81;100.00
3206;BME280;1615;53.602;11.418;2023-01-28T13:38:18;102346.81;;;5.86;100.00
3206;BME280;1615;53.602;11.418;2023-01-28T13:40:56;102247.38;;;5.17;100.00
3206;BME280;1615;53.602;11.418;2023-01-28T13:43:33;102349.47;;;5.68;100.00
3206;BME280;1615;53.602;11.418;2023-01-28T13:46:08;102351.66;;;5.84;100.00
3206;BME280;1615;53.602;11.418;2023-01-28T13:48:47;102295.69;;;5.64;100.00
3206;BME280;1615;53.602;11.418;2023-01-28T13:51:22;102325.78;;;5.44;100.00
3206;BME280;1615;53.602;11.418;2023-01-28T13:54:09;102355.72;;;5.44;100.00
3206;BME280;1615;53.602;11.418;2023-01-28T13:56:54;102382.88;;;5.51;100.00
3206;BME280;1615;53.602;11.418;2023-01-28T14:04:47;102371.53;;;5.54;100.00
3206;BME280;1615;53.602;11.418;2023-01-28T14:07:39;102375.13;;;5.48;100.00
3206;BME280;1615;53.602;11.418;2023-01-28T14:19:11;102441.78;;;5.63;100.00
3206;BME280;1615;53.602;11.418;2023-01-28T14:21:37;102282.56;;;4.81;100.00
3206;BME280;1615;53.602;11.418;2023-01-28T14:24:03;102420.25;;;5.62;100.00
3206;BME280;1615;53.602;11.418;2023-01-28T14:26:50;102413.19;;;5.54;100.00
3206;BME280;1615;53.602;11.418;2023-01-28T14:31:52;102395.09;;;5.35;100.00
3206;BME280;1615;53.602;11.418;2023-01-28T14:34:31;102394.88;;;5.37;100.00
3206;BME280;1615;53.602;11.418;2023-01-28T14:37:07;102396.09;;;5.10;100.00
3206;BME280;1615;53.602;11.418;2023-01-28T14:40:03;102385.84;;;5.12;100.00
3206;BME280;1615;53.602;11.418;2023-01-28T14:42:41;102382.91;;;5.13;100.00
3206;BME280;1615;53.602;11.418;2023-01-28T14:48:19;102376.00;;;5.11;100.00
3206;BME280;1615;53.602;11.418;2023-01-28T14:50:57;102373.94;;;5.13;100.00
3206;BME280;1615;53.602;11.418;2023-01-28T14:56:21;102380.66;;;5.04;100.00
3206;BME280;1615;53.602;11.418;2023-01-28T14:59:16;102379.41;;;5.00;100.00
3206;BME280;1615;53.602;11.418;2023-01-28T15:01:46;102393.19;;;5.05;100.00
3206;BME280;1615;53.602;11.418;2023-01-28T15:04:28;102376.88;;;5.05;100.00
3206;BME280;1615;53.602;11.418;2023-01-28T15:06:54;102426.00;;;5.10;100.00
3206;BME280;1615;53.602;11.418;2023-01-28T15:09:20;102393.16;;;5.11;100.00
3206;BME280;1615;53.602;11.418;2023-01-28T15:11:48;102246.09;;;4.20;100.00